Time;durP1;ratioP1;P1;durP2;ratioP2;P2;SDS_P1;SDS_P2;PMS_P1;PMS_P2;Temp;Humidity;BMP_temperature;BMP_pressure;BME280_temperature;BME280_humidity;BME280_pressure;Samples;Min_cycle;Max_cycle;Signal;HPM_P1;HPM_P2
2023/06/19 00:01:44;;;;;;;17.05;10.75;;;23.30;66.10;;;;;;5100938;28;20399;-80
2023/06/19 00:04:10;;;;;;;19.13;11.40;;;23.30;65.60;;;;;;5074302;28;20645;-78
2023/06/19 00:06:36;;;;;;;21.77;11.07;;;23.30;66.00;;;;;;5086296;28;20031;-78
2023/06/19 00:09:02;;;;;;;40.15;11.02;;;23.30;67.00;;;;;;5089071;28;20032;-80
2023/06/19 00:11:27;;;;;;;15.88;10.85;;;23.30;66.60;;;;;;5092015;28;20031;-77
2023/06/19 00:13:53;;;;;;;15.68;10.88;;;23.20;68.10;;;;;;5090269;28;20384;-79
2023/06/19 00:16:19;;;;;;;17.77;10.70;;;23.20;68.10;;;;;;5087504;28;20028;-79
2023/06/19 00:18:45;;;;;;;15.63;11.07;;;23.10;67.80;;;;;;5080606;28;20082;-78
2023/06/19 00:21:11;;;;;;;17.45;11.02;;;23.10;67.60;;;;;;5095074;28;20396;-79
2023/06/19 00:23:37;;;;;;;18.27;10.77;;;23.00;67.80;;;;;;5083658;28;20099;-80
2023/06/19 00:26:03;;;;;;;15.55;11.07;;;22.90;67.60;;;;;;5077460;28;20036;-79
2023/06/19 00:28:29;;;;;;;17.63;10.82;;;22.90;68.30;;;;;;5085230;28;20035;-76
2023/06/19 00:30:55;;;;;;;16.42;10.75;;;22.90;68.10;;;;;;5087671;28;20036;-79
2023/06/19 00:33:21;;;;;;;18.85;11.00;;;22.90;68.60;;;;;;5086869;28;20024;-79
2023/06/19 00:35:48;;;;;;;15.13;10.98;;;22.90;71.20;;;;;;5078298;28;20020;-79
2023/06/19 00:38:13;;;;;;;26.73;11.30;;;22.70;70.80;;;;;;5073900;28;20032;-78
2023/06/19 00:40:39;;;;;;;16.30;11.57;;;22.60;71.50;;;;;;5082469;28;20024;-79
2023/06/19 00:43:06;;;;;;;15.35;10.98;;;22.50;72.50;;;;;;5072962;28;20134;-79
2023/06/19 00:45:31;;;;;;;18.42;11.52;;;22.40;73.10;;;;;;5083872;28;20491;-75
2023/06/19 00:47:59;;;;;;;17.73;10.90;;;22.30;73.40;;;;;;5082930;28;20060;-80
2023/06/19 00:50:25;;;;;;;16.52;10.90;;;22.30;73.40;;;;;;5082802;28;20028;-79
2023/06/19 00:52:51;;;;;;;16.20;10.95;;;22.30;73.30;;;;;;5070660;28;20110;-79
2023/06/19 00:55:18;;;;;;;15.95;11.23;;;22.30;72.90;;;;;;5083976;28;20507;-79
2023/06/19 00:57:45;;;;;;;17.05;11.55;;;22.40;72.80;;;;;;5084005;28;20046;-79
2023/06/19 01:00:12;;;;;;;16.35;10.77;;;22.40;73.50;;;;;;5088372;28;20027;-77
2023/06/19 01:02:38;;;;;;;18.25;11.70;;;22.40;73.90;;;;;;5087122;28;20464;-79
2023/06/19 01:05:04;;;;;;;17.25;11.77;;;22.30;73.50;;;;;;5073773;28;20508;-79
2023/06/19 01:07:47;;;;;;;17.77;11.57;;;22.30;74.00;;;;;;5079298;28;20036;-76
2023/06/19 01:10:21;;;;;;;17.63;11.40;;;22.20;74.50;;;;;;5086980;28;20124;-79
2023/06/19 01:12:56;;;;;;;15.73;11.40;;;22.10;75.70;;;;;;5092268;28;20059;-78
2023/06/19 01:15:23;;;;;;;15.88;11.10;;;22.00;77.70;;;;;;5082242;28;20017;-79
2023/06/19 01:17:49;;;;;;;15.98;11.88;;;21.80;78.80;;;;;;5085941;28;20492;-80
2023/06/19 01:20:15;;;;;;;19.20;11.60;;;21.70;80.00;;;;;;5079766;28;20117;-78
2023/06/19 01:22:43;;;;;;;17.70;11.52;;;21.60;80.10;;;;;;5084253;28;20032;-79
2023/06/19 01:25:10;;;;;;;16.38;11.52;;;21.60;79.60;;;;;;5087242;28;20020;-79
2023/06/19 01:27:36;;;;;;;16.55;10.98;;;21.60;78.90;;;;;;5075832;28;20472;-75
2023/06/19 01:30:03;;;;;;;16.70;11.65;;;21.60;77.10;;;;;;5086958;28;20039;-79
2023/06/19 01:32:36;;;;;;;17.73;10.98;;;21.60;77.10;;;;;;5071777;28;20038;-79
2023/06/19 01:35:04;;;;;;;16.33;11.77;;;21.60;77.70;;;;;;5074845;28;20405;-80
2023/06/19 01:37:33;;;;;;;16.70;12.05;;;21.70;78.70;;;;;;5083706;28;20051;-78
2023/06/19 01:40:01;;;;;;;18.20;11.57;;;21.60;79.10;;;;;;5080890;28;20043;-78
2023/06/19 01:42:27;;;;;;;18.15;11.90;;;21.50;80.60;;;;;;5071356;28;20024;-78
2023/06/19 01:44:53;;;;;;;19.58;11.57;;;21.40;81.70;;;;;;5081195;28;20042;-79
2023/06/19 01:47:20;;;;;;;15.93;11.32;;;21.40;81.90;;;;;;5087879;28;20052;-79
2023/06/19 01:49:48;;;;;;;16.75;11.25;;;21.40;81.70;;;;;;5081135;28;20023;-79
2023/06/19 01:52:14;;;;;;;16.95;12.05;;;21.40;82.50;;;;;;5076560;28;20139;-79
2023/06/19 01:54:40;;;;;;;18.35;11.60;;;21.40;82.20;;;;;;5082743;28;20546;-79
2023/06/19 01:57:06;;;;;;;16.67;11.77;;;21.40;82.30;;;;;;5072670;28;20051;-78
2023/06/19 01:59:32;;;;;;;17.20;11.90;;;21.40;82.30;;;;;;5093383;28;20040;-79
2023/06/19 02:01:57;;;;;;;15.00;11.45;;;21.40;82.90;;;;;;5078778;28;20028;-79
2023/06/19 02:04:23;;;;;;;20.92;11.70;;;21.30;83.50;;;;;;5083487;28;20032;-80
2023/06/19 02:06:48;;;;;;;19.17;12.15;;;21.30;84.00;;;;;;5084973;28;20040;-78
2023/06/19 02:09:14;;;;;;;16.85;11.68;;;21.20;83.40;;;;;;5086097;28;20059;-81
2023/06/19 02:11:40;;;;;;;17.15;11.70;;;21.10;84.00;;;;;;5082079;28;20036;-78
2023/06/19 02:14:05;;;;;;;16.25;11.82;;;21.10;85.30;;;;;;5080843;28;20531;-79
2023/06/19 02:16:31;;;;;;;19.95;11.52;;;21.00;85.90;;;;;;5085510;28;20381;-79
2023/06/19 02:18:56;;;;;;;19.77;11.25;;;21.00;85.40;;;;;;5070312;28;20035;-80
2023/06/19 02:21:22;;;;;;;14.70;10.35;;;20.80;86.60;;;;;;5073965;28;20036;-77
2023/06/19 02:23:48;;;;;;;16.67;10.40;;;20.80;85.20;;;;;;5077851;28;20111;-79
2023/06/19 02:26:14;;;;;;;14.32;10.20;;;20.80;84.50;;;;;;5086834;28;20135;-82
2023/06/19 02:28:39;;;;;;;14.60;10.27;;;20.80;83.90;;;;;;5083033;28;20560;-74
2023/06/19 02:31:05;;;;;;;13.50;8.85;;;20.80;82.70;;;;;;5105100;28;20047;-80
2023/06/19 02:33:32;;;;;;;16.02;10.73;;;21.00;81.80;;;;;;5092257;28;20031;-77
2023/06/19 02:35:58;;;;;;;14.65;9.77;;;21.10;81.90;;;;;;5091505;28;20016;-83
2023/06/19 02:38:25;;;;;;;15.88;9.95;;;21.20;82.10;;;;;;5082921;28;20106;-79
2023/06/19 02:40:51;;;;;;;14.93;10.45;;;21.30;82.80;;;;;;5093158;28;20039;-76
2023/06/19 02:43:16;;;;;;;16.10;11.23;;;21.20;85.60;;;;;;5069271;28;20028;-78
2023/06/19 02:45:42;;;;;;;18.75;10.27;;;21.10;85.00;;;;;;5085130;28;20056;-75
2023/06/19 02:48:08;;;;;;;14.90;10.68;;;21.00;84.30;;;;;;5089020;28;20075;-80
2023/06/19 02:50:34;;;;;;;15.68;10.30;;;21.00;84.20;;;;;;5098092;28;20031;-78
2023/06/19 02:52:59;;;;;;;17.90;9.82;;;21.00;84.30;;;;;;5087450;28;20204;-77
2023/06/19 02:55:25;;;;;;;16.92;10.05;;;20.90;84.00;;;;;;5124834;27;20020;-78
2023/06/19 02:57:51;;;;;;;16.42;9.45;;;21.00;84.10;;;;;;5076721;28;20499;-77
2023/06/19 03:00:17;;;;;;;14.75;9.48;;;21.10;84.00;;;;;;5088493;28;20410;-77
2023/06/19 03:02:44;;;;;;;16.10;9.82;;;21.00;84.60;;;;;;5089720;28;20461;-77
2023/06/19 03:05:10;;;;;;;15.50;9.38;;;21.00;84.90;;;;;;5083576;28;20550;-76
2023/06/19 03:07:36;;;;;;;17.58;9.07;;;21.00;85.10;;;;;;5091203;28;20024;-76
2023/06/19 03:10:02;;;;;;;12.30;9.40;;;21.00;85.30;;;;;;5101052;28;20105;-77
2023/06/19 03:12:28;;;;;;;13.38;9.00;;;21.10;85.60;;;;;;5089640;28;20032;-77
2023/06/19 03:14:53;;;;;;;14.52;9.35;;;21.20;85.20;;;;;;5089660;28;20428;-77
2023/06/19 03:17:19;;;;;;;13.38;9.50;;;21.20;85.00;;;;;;5080130;28;20045;-77
2023/06/19 03:19:44;;;;;;;12.50;9.23;;;21.20;86.00;;;;;;5070433;28;20109;-77
2023/06/19 03:22:10;;;;;;;16.58;10.07;;;21.10;86.70;;;;;;5083019;28;20044;-76
2023/06/19 03:24:36;;;;;;;12.05;8.48;;;21.20;85.20;;;;;;5090943;28;20107;-77
2023/06/19 03:27:01;;;;;;;16.33;9.45;;;21.20;86.60;;;;;;5090296;28;20175;-77
2023/06/19 03:29:27;;;;;;;12.95;9.00;;;21.10;86.00;;;;;;5100408;28;20476;-77
2023/06/19 03:31:53;;;;;;;17.25;9.68;;;21.20;86.50;;;;;;5111073;28;20022;-77
2023/06/19 03:34:18;;;;;;;18.15;9.90;;;21.10;86.30;;;;;;5111411;28;20032;-77
2023/06/19 03:36:44;;;;;;;15.50;9.65;;;21.10;85.40;;;;;;5110816;28;20059;-76
2023/06/19 03:39:10;;;;;;;14.85;10.18;;;21.10;85.60;;;;;;5108534;28;20035;-77
2023/06/19 03:41:35;;;;;;;17.42;10.45;;;21.10;86.30;;;;;;5111822;28;20024;-77
2023/06/19 03:44:01;;;;;;;14.60;10.25;;;21.10;86.60;;;;;;5110570;28;20092;-77
2023/06/19 03:46:26;;;;;;;15.15;10.55;;;21.00;87.00;;;;;;5111270;28;20411;-78
2023/06/19 03:48:53;;;;;;;15.15;10.05;;;20.90;88.00;;;;;;5094840;28;20064;-77
2023/06/19 03:51:19;;;;;;;13.60;10.32;;;20.90;88.60;;;;;;5110171;28;20031;-78
2023/06/19 03:53:45;;;;;;;15.43;10.38;;;20.90;88.00;;;;;;5100762;28;20438;-74
2023/06/19 03:56:10;;;;;;;17.00;10.38;;;20.90;87.40;;;;;;5083405;28;20377;-77
2023/06/19 03:58:36;;;;;;;15.23;10.95;;;20.90;87.60;;;;;;5077376;28;20159;-77
2023/06/19 04:01:02;;;;;;;17.27;10.88;;;20.90;87.90;;;;;;5095472;28;20106;-76
2023/06/19 04:03:28;;;;;;;29.63;11.70;;;20.90;88.90;;;;;;5094573;28;20032;-76
2023/06/19 04:05:54;;;;;;;17.80;11.65;;;20.80;89.70;;;;;;5101835;28;20032;-77
2023/06/19 04:08:19;;;;;;;18.38;11.30;;;20.80;90.30;;;;;;5095650;28;20048;-74
2023/06/19 04:10:45;;;;;;;20.05;11.20;;;20.70;90.80;;;;;;5109885;28;20023;-74
2023/06/19 04:13:12;;;;;;;15.55;10.90;;;20.70;91.00;;;;;;5095269;28;20476;-77
2023/06/19 04:15:38;;;;;;;15.00;10.30;;;20.70;91.20;;;;;;5070548;28;20025;-77
2023/06/19 04:18:04;;;;;;;16.10;10.70;;;20.70;91.40;;;;;;5073684;28;20030;-76
2023/06/19 04:20:29;;;;;;;19.38;11.02;;;20.70;91.50;;;;;;5099593;28;20091;-77
2023/06/19 04:22:55;;;;;;;19.15;10.40;;;20.70;91.90;;;;;;5085990;28;20107;-77
2023/06/19 04:25:20;;;;;;;15.80;10.32;;;20.70;92.20;;;;;;5069989;28;20025;-75
2023/06/19 04:27:46;;;;;;;18.13;9.80;;;20.70;92.40;;;;;;5085626;28;20035;-74
2023/06/19 04:30:12;;;;;;;16.88;9.90;;;20.70;92.70;;;;;;5094120;28;20030;-75
2023/06/19 04:32:40;;;;;;;17.48;10.18;;;20.70;93.00;;;;;;5108041;28;20027;-75
2023/06/19 04:35:09;;;;;;;11.95;9.02;;;20.70;93.10;;;;;;5068754;28;20024;-75
2023/06/19 04:37:35;;;;;;;14.68;9.48;;;20.70;93.60;;;;;;5069556;28;20060;-80
2023/06/19 04:40:01;;;;;;;17.38;10.13;;;20.70;93.70;;;;;;5093590;28;20478;-75
2023/06/19 04:42:27;;;;;;;17.52;9.15;;;20.70;93.80;;;;;;5088741;28;20033;-75
2023/06/19 04:44:52;;;;;;;14.20;9.88;;;20.70;93.90;;;;;;5068357;28;20028;-76
2023/06/19 04:47:21;;;;;;;12.88;9.02;;;20.70;94.00;;;;;;5074739;28;20057;-75
2023/06/19 04:49:47;;;;;;;13.60;9.07;;;20.80;94.30;;;;;;5084040;28;20077;-75
2023/06/19 04:52:13;;;;;;;18.10;8.45;;;20.80;94.30;;;;;;5107732;28;20031;-77
2023/06/19 04:54:38;;;;;;;15.55;9.18;;;20.80;94.70;;;;;;5079684;28;20035;-72
2023/06/19 04:57:05;;;;;;;14.57;8.57;;;20.90;94.60;;;;;;5086525;28;20044;-73
2023/06/19 04:59:30;;;;;;;13.98;9.10;;;20.90;95.10;;;;;;5098398;28;20039;-75
2023/06/19 05:01:59;;;;;;;13.20;8.70;;;20.90;95.20;;;;;;5097854;28;20027;-74
2023/06/19 05:04:25;;;;;;;14.00;8.52;;;20.90;95.40;;;;;;5087106;28;20044;-73
2023/06/19 05:06:51;;;;;;;13.73;8.73;;;20.90;95.00;;;;;;5068476;28;20486;-73
2023/06/19 05:09:17;;;;;;;14.23;8.68;;;20.90;95.40;;;;;;5086053;28;20451;-74
2023/06/19 05:11:44;;;;;;;15.13;8.48;;;20.90;96.00;;;;;;5101420;28;20052;-75
2023/06/19 05:14:10;;;;;;;13.40;8.93;;;20.90;96.30;;;;;;5075448;28;20020;-73
2023/06/19 05:16:35;;;;;;;15.45;7.93;;;20.90;96.40;;;;;;5074332;28;20028;-74
2023/06/19 05:19:01;;;;;;;14.27;8.48;;;20.80;96.10;;;;;;5113371;27;20039;-73
2023/06/19 05:21:27;;;;;;;11.30;8.50;;;20.80;96.50;;;;;;5088649;28;20028;-73
2023/06/19 05:23:53;;;;;;;12.77;8.30;;;20.80;96.50;;;;;;5079878;28;20024;-74
2023/06/19 05:26:19;;;;;;;12.50;8.40;;;20.90;96.70;;;;;;5087739;28;20040;-74
2023/06/19 05:28:45;;;;;;;10.95;7.68;;;20.90;97.10;;;;;;5079436;28;20052;-74
2023/06/19 05:31:11;;;;;;;13.23;8.65;;;20.90;97.20;;;;;;5113256;27;20036;-74
2023/06/19 05:33:37;;;;;;;14.65;8.00;;;20.90;97.10;;;;;;5084024;28;20030;-74
2023/06/19 05:36:02;;;;;;;12.38;8.00;;;21.00;97.10;;;;;;5087764;28;20419;-73
2023/06/19 05:38:30;;;;;;;14.60;8.10;;;21.00;96.70;;;;;;5084446;28;20028;-75
2023/06/19 05:40:59;;;;;;;15.63;8.18;;;21.10;97.30;;;;;;5098713;28;20027;-74
2023/06/19 05:43:25;;;;;;;13.23;7.80;;;21.20;96.80;;;;;;5096113;28;20036;-74
2023/06/19 05:45:52;;;;;;;13.35;8.20;;;21.20;97.30;;;;;;5072321;28;20025;-74
2023/06/19 05:48:18;;;;;;;12.05;8.13;;;21.20;97.40;;;;;;5095809;28;20055;-73
2023/06/19 05:50:43;;;;;;;11.80;8.15;;;21.20;96.90;;;;;;5086425;28;20064;-74
2023/06/19 05:53:09;;;;;;;11.70;7.28;;;21.30;97.20;;;;;;5085987;28;20219;-75
2023/06/19 05:55:35;;;;;;;11.60;8.02;;;21.20;97.60;;;;;;5074807;28;20024;-74
2023/06/19 05:58:02;;;;;;;12.15;7.65;;;21.20;98.10;;;;;;5081509;28;20032;-73
2023/06/19 06:00:29;;;;;;;10.75;8.07;;;21.20;98.00;;;;;;5080026;28;20065;-74
2023/06/19 06:03:02;;;;;;;14.60;7.93;;;21.30;98.40;;;;;;5091128;28;20016;-72
2023/06/19 06:05:27;;;;;;;13.30;7.85;;;21.30;98.30;;;;;;5087954;28;20031;-75
2023/06/19 06:07:57;;;;;;;16.77;8.02;;;21.30;98.30;;;;;;5093179;28;20028;-73
2023/06/19 06:10:23;;;;;;;11.27;7.80;;;21.40;97.60;;;;;;5087459;28;20697;-73
2023/06/19 06:12:49;;;;;;;12.30;7.65;;;21.40;97.80;;;;;;5090038;28;20146;-72
2023/06/19 06:15:16;;;;;;;11.32;7.60;;;21.40;97.70;;;;;;5090644;28;20083;-72
2023/06/19 06:17:41;;;;;;;9.38;6.85;;;21.50;97.60;;;;;;5116810;27;20040;-72
2023/06/19 06:20:13;;;;;;;13.45;6.93;;;21.50;97.50;;;;;;5074275;28;20032;-72
2023/06/19 06:22:42;;;;;;;9.05;7.00;;;21.50;97.50;;;;;;5087166;28;20098;-73
2023/06/19 06:25:10;;;;;;;9.68;6.45;;;21.50;97.90;;;;;;5092936;28;20032;-73
2023/06/19 06:27:35;;;;;;;11.10;6.70;;;21.50;98.30;;;;;;5091299;28;20028;-73
2023/06/19 06:30:02;;;;;;;10.70;6.97;;;21.50;98.10;;;;;;5091077;28;20082;-71
2023/06/19 06:32:28;;;;;;;11.02;7.07;;;21.50;98.10;;;;;;5082413;28;20040;-72
2023/06/19 06:34:54;;;;;;;11.77;6.95;;;21.50;98.50;;;;;;5089184;28;20028;-72
2023/06/19 06:37:22;;;;;;;11.68;7.22;;;21.50;99.10;;;;;;5082814;28;20051;-72
2023/06/19 06:39:51;;;;;;;10.77;6.80;;;21.50;98.60;;;;;;5093802;28;20526;-74
2023/06/19 06:42:18;;;;;;;8.57;5.97;;;21.50;98.80;;;;;;5094966;28;20100;-71
2023/06/19 06:44:44;;;;;;;10.45;5.68;;;21.60;98.90;;;;;;5082152;28;20036;-72
2023/06/19 06:47:10;;;;;;;8.38;5.60;;;21.70;98.70;;;;;;5091936;28;20052;-73
2023/06/19 06:49:38;;;;;;;7.70;5.30;;;21.80;98.40;;;;;;5108658;28;20036;-72
2023/06/19 06:52:05;;;;;;;8.65;4.82;;;21.90;98.40;;;;;;5113131;27;20023;-73
2023/06/19 06:54:30;;;;;;;6.47;4.80;;;22.00;97.10;;;;;;5088617;28;20101;-73
2023/06/19 06:56:58;;;;;;;10.20;4.97;;;21.90;97.80;;;;;;5087497;28;20453;-72
2023/06/19 06:59:25;;;;;;;10.93;5.22;;;22.00;97.80;;;;;;5084268;28;20044;-71
2023/06/19 07:01:51;;;;;;;7.32;4.78;;;22.00;98.00;;;;;;5089392;28;20032;-74
2023/06/19 07:04:16;;;;;;;8.18;4.72;;;22.00;97.70;;;;;;5089711;28;20029;-72
2023/06/19 07:06:42;;;;;;;7.05;4.78;;;22.10;97.70;;;;;;5088179;28;20028;-72
2023/06/19 07:09:09;;;;;;;6.30;4.63;;;22.40;97.60;;;;;;5090237;28;20032;-73
2023/06/19 07:11:34;;;;;;;6.38;4.57;;;22.50;97.40;;;;;;5094572;28;20032;-72
2023/06/19 07:14:02;;;;;;;6.35;4.60;;;22.50;97.10;;;;;;5079390;28;20032;-73
2023/06/19 07:16:28;;;;;;;6.20;4.50;;;22.50;97.10;;;;;;5087200;28;20448;-75
2023/06/19 07:18:54;;;;;;;6.20;4.25;;;22.60;97.60;;;;;;5077527;28;20051;-72
2023/06/19 07:21:19;;;;;;;6.47;3.80;;;22.70;97.30;;;;;;5088666;28;20035;-73
2023/06/19 07:23:47;;;;;;;8.40;3.70;;;22.80;97.30;;;;;;5088392;28;20137;-74
2023/06/19 07:26:14;;;;;;;4.97;3.60;;;22.80;96.70;;;;;;5074339;28;20533;-73
2023/06/19 07:28:40;;;;;;;7.05;3.78;;;22.80;96.60;;;;;;5086994;28;20488;-74
2023/06/19 07:31:06;;;;;;;6.00;3.80;;;22.90;96.60;;;;;;5070608;28;20055;-72
2023/06/19 07:33:31;;;;;;;5.43;3.90;;;22.90;95.90;;;;;;5114935;27;20062;-72
2023/06/19 07:35:57;;;;;;;5.18;3.88;;;22.90;96.50;;;;;;5084838;28;20103;-73
2023/06/19 07:38:23;;;;;;;5.35;3.47;;;22.90;96.60;;;;;;5089465;28;20040;-73
2023/06/19 07:40:49;;;;;;;8.35;3.20;;;22.70;96.20;;;;;;5089759;28;20500;-71
2023/06/19 07:43:15;;;;;;;6.32;3.20;;;22.70;97.30;;;;;;5092068;28;20027;-74
2023/06/19 07:45:41;;;;;;;4.90;3.28;;;22.70;96.80;;;;;;5092836;28;20028;-71
2023/06/19 07:48:06;;;;;;;5.07;3.35;;;22.70;96.70;;;;;;5094332;28;20028;-72
2023/06/19 07:50:32;;;;;;;7.40;3.55;;;23.00;97.40;;;;;;5106061;28;20412;-74
2023/06/19 07:52:58;;;;;;;6.55;3.40;;;23.50;95.70;;;;;;5106890;28;20028;-72
2023/06/19 07:55:24;;;;;;;5.25;3.33;;;23.70;95.70;;;;;;5089552;28;20157;-74
2023/06/19 07:57:49;;;;;;;4.72;3.30;;;23.60;94.90;;;;;;5072796;28;20051;-72
2023/06/19 08:00:15;;;;;;;4.40;3.28;;;23.50;94.90;;;;;;5101405;28;20109;-74
2023/06/19 08:02:41;;;;;;;6.15;3.42;;;23.30;95.50;;;;;;5111282;28;20031;-74
2023/06/19 08:05:08;;;;;;;5.40;3.70;;;23.30;96.00;;;;;;5095284;28;20032;-71
2023/06/19 08:07:35;;;;;;;4.55;3.50;;;23.20;95.90;;;;;;5090900;28;20035;-72
2023/06/19 08:10:03;;;;;;;4.13;3.20;;;23.10;95.90;;;;;;5092524;28;20032;-72
2023/06/19 08:12:29;;;;;;;7.82;3.50;;;23.10;96.90;;;;;;5106150;28;20028;-72
2023/06/19 08:14:55;;;;;;;4.47;3.15;;;23.40;96.00;;;;;;5089758;28;20043;-71
2023/06/19 08:17:21;;;;;;;4.10;2.90;;;23.90;96.60;;;;;;5115927;27;20040;-72
2023/06/19 08:19:47;;;;;;;5.13;3.53;;;24.30;95.10;;;;;;5090439;28;20106;-74
2023/06/19 08:22:13;;;;;;;4.90;2.97;;;24.80;94.40;;;;;;5092497;28;20105;-74
2023/06/19 08:24:40;;;;;;;4.53;3.58;;;25.00;93.30;;;;;;5088500;28;20427;-73
2023/06/19 08:27:06;;;;;;;5.30;3.30;;;24.90;93.40;;;;;;5077612;28;20032;-73
2023/06/19 08:29:32;;;;;;;5.47;3.35;;;25.10;92.70;;;;;;5088496;28;20531;-73
2023/06/19 08:31:58;;;;;;;4.82;3.60;;;25.20;93.60;;;;;;5074384;28;20099;-72
2023/06/19 08:34:23;;;;;;;7.70;3.88;;;25.10;91.90;;;;;;5070065;28;20511;-72
2023/06/19 08:36:49;;;;;;;4.55;3.00;;;25.20;93.30;;;;;;5090112;28;20032;-72
2023/06/19 08:39:15;;;;;;;7.50;3.47;;;25.20;92.40;;;;;;5074322;28;20059;-73
2023/06/19 08:41:42;;;;;;;4.43;3.45;;;25.40;93.40;;;;;;5088616;28;20448;-72
2023/06/19 08:44:08;;;;;;;5.95;3.38;;;25.40;91.60;;;;;;5085492;28;20024;-73
2023/06/19 08:46:34;;;;;;;4.88;3.30;;;25.30;91.70;;;;;;5069947;28;20097;-74
2023/06/19 08:49:00;;;;;;;5.95;3.10;;;25.30;91.10;;;;;;5072211;28;20036;-70
2023/06/19 08:51:28;;;;;;;12.88;3.25;;;25.10;91.20;;;;;;5089861;28;20099;-70
2023/06/19 08:54:01;;;;;;;8.65;3.47;;;25.00;91.70;;;;;;5086118;28;20384;-71
2023/06/19 08:56:27;;;;;;;3.92;3.20;;;25.10;91.60;;;;;;5088925;28;20032;-72
2023/06/19 08:58:53;;;;;;;6.97;3.28;;;25.10;92.50;;;;;;5084352;28;20113;-73
2023/06/19 09:01:19;;;;;;;6.70;3.30;;;25.20;91.60;;;;;;5074047;28;20026;-71
2023/06/19 09:03:46;;;;;;;5.07;3.60;;;25.20;91.70;;;;;;5103276;28;20035;-71
2023/06/19 09:06:16;;;;;;;6.22;3.53;;;25.20;91.20;;;;;;5083489;28;20028;-71
2023/06/19 09:08:41;;;;;;;5.70;3.30;;;25.10;91.50;;;;;;5070658;28;20029;-74
2023/06/19 09:11:07;;;;;;;6.53;3.50;;;25.10;91.70;;;;;;5111498;27;20784;-71
2023/06/19 09:13:33;;;;;;;4.60;3.38;;;24.90;91.70;;;;;;5094651;28;20036;-71
2023/06/19 09:16:03;;;;;;;4.50;3.22;;;24.90;92.00;;;;;;5087247;28;20028;-72
2023/06/19 09:18:30;;;;;;;4.43;2.90;;;24.90;91.50;;;;;;5088622;28;20048;-71
2023/06/19 09:20:57;;;;;;;5.18;3.13;;;24.90;91.40;;;;;;5089040;28;20024;-72
2023/06/19 09:23:23;;;;;;;4.60;2.95;;;24.90;91.00;;;;;;5093822;28;20123;-71
2023/06/19 09:25:51;;;;;;;7.90;3.20;;;24.80;90.80;;;;;;5086689;28;20031;-71
2023/06/19 09:28:21;;;;;;;4.35;2.78;;;24.80;92.00;;;;;;5083439;28;20032;-71
2023/06/19 09:31:01;;;;;;;4.40;3.45;;;24.80;90.40;;;;;;5087569;28;20028;-73
2023/06/19 09:33:32;;;;;;;4.25;2.80;;;24.80;90.50;;;;;;5102339;28;20527;-71
2023/06/19 09:35:59;;;;;;;3.30;2.70;;;25.00;91.40;;;;;;5087608;28;20036;-72
2023/06/19 09:38:31;;;;;;;4.82;2.97;;;25.10;90.40;;;;;;5087622;28;20097;-72
2023/06/19 09:40:59;;;;;;;7.45;3.17;;;25.40;90.80;;;;;;5069614;28;20043;-72
2023/06/19 09:43:29;;;;;;;4.68;2.95;;;25.70;90.40;;;;;;5116393;27;20032;-72
2023/06/19 09:45:57;;;;;;;4.00;3.20;;;25.80;89.50;;;;;;5088729;28;20044;-70
2023/06/19 09:48:29;;;;;;;4.78;3.20;;;26.00;89.70;;;;;;5073679;28;20028;-73
2023/06/19 09:51:30;;;;;;;3.97;3.35;;;26.00;86.90;;;;;;5088821;28;20036;-72
2023/06/19 09:53:58;;;;;;;10.43;3.58;;;26.30;90.90;;;;;;5048937;28;20184;-72
2023/06/19 09:56:25;;;;;;;4.10;3.25;;;26.80;85.70;;;;;;5074159;28;20039;-72
2023/06/19 09:58:54;;;;;;;3.97;3.17;;;27.10;85.00;;;;;;5086895;28;20071;-73
2023/06/19 10:01:20;;;;;;;5.80;3.15;;;27.00;83.40;;;;;;5092245;28;20039;-72
2023/06/19 10:03:46;;;;;;;5.63;3.75;;;26.80;84.50;;;;;;5098933;28;20062;-71
2023/06/19 10:06:16;;;;;;;4.13;3.05;;;26.80;85.90;;;;;;5068396;28;20056;-72
2023/06/19 10:08:43;;;;;;;4.60;3.70;;;27.00;83.90;;;;;;5075858;28;20020;-73
2023/06/19 10:11:13;;;;;;;5.03;3.45;;;27.50;82.50;;;;;;5088089;28;20039;-72
2023/06/19 10:13:42;;;;;;;7.47;4.13;;;27.70;81.50;;;;;;5096007;28;20043;-73
2023/06/19 10:16:19;;;;;;;4.22;3.65;;;28.00;84.70;;;;;;5075576;28;20531;-72
2023/06/19 10:18:49;;;;;;;7.55;3.58;;;28.30;79.80;;;;;;5068603;28;20118;-74
2023/06/19 10:21:21;;;;;;;4.72;3.35;;;28.50;78.90;;;;;;5067732;28;20420;-73
2023/06/19 10:23:55;;;;;;;7.25;3.83;;;28.10;79.30;;;;;;5080590;28;20097;-74
2023/06/19 10:26:32;;;;;;;7.13;3.22;;;27.90;80.80;;;;;;5073437;28;20031;-75
2023/06/19 10:28:58;;;;;;;7.07;3.55;;;27.80;81.80;;;;;;5082755;28;20769;-74
2023/06/19 10:31:24;;;;;;;6.97;3.58;;;28.00;80.80;;;;;;5080943;28;20020;-73
2023/06/19 10:33:49;;;;;;;4.85;3.72;;;28.50;79.30;;;;;;5078158;28;20052;-75
2023/06/19 10:36:18;;;;;;;5.22;3.30;;;29.10;78.80;;;;;;5079237;28;20103;-76
2023/06/19 10:38:47;;;;;;;4.60;3.17;;;28.90;76.40;;;;;;5084774;28;20040;-72
2023/06/19 10:41:17;;;;;;;3.50;2.88;;;28.70;74.80;;;;;;5074802;28;20081;-72
2023/06/19 10:43:56;;;;;;;4.25;2.90;;;28.60;74.70;;;;;;5083788;28;20091;-71
2023/06/19 10:46:23;;;;;;;4.13;3.20;;;29.00;76.70;;;;;;5067479;28;20049;-70
2023/06/19 10:48:49;;;;;;;3.47;2.80;;;29.70;76.80;;;;;;5077231;28;20028;-75
2023/06/19 10:51:19;;;;;;;2.97;2.67;;;30.00;72.90;;;;;;5082613;28;20039;-74
2023/06/19 10:53:45;;;;;;;6.40;3.40;;;30.00;71.80;;;;;;5088384;28;20836;-75
2023/06/19 10:56:10;;;;;;;5.32;3.22;;;29.70;71.10;;;;;;5086087;28;20036;-74
2023/06/19 10:58:36;;;;;;;4.07;3.20;;;29.70;71.80;;;;;;5072406;28;20033;-76
2023/06/19 11:01:02;;;;;;;3.28;2.75;;;30.00;71.20;;;;;;5101488;28;20029;-73
2023/06/19 11:03:28;;;;;;;3.42;2.58;;;30.10;71.60;;;;;;5123649;27;20024;-77
2023/06/19 11:05:54;;;;;;;3.78;2.70;;;30.40;67.30;;;;;;5117348;27;20056;-74
2023/06/19 11:08:22;;;;;;;2.83;2.40;;;30.30;68.90;;;;;;5088832;28;20074;-73
2023/06/19 11:10:49;;;;;;;4.30;2.15;;;29.80;68.40;;;;;;5082305;28;20048;-73
2023/06/19 11:13:17;;;;;;;2.53;2.30;;;29.30;68.20;;;;;;5075105;28;20040;-75
2023/06/19 11:15:43;;;;;;;6.45;2.47;;;28.80;71.50;;;;;;5089386;28;20115;-74
2023/06/19 11:18:08;;;;;;;3.80;2.67;;;28.50;71.60;;;;;;5077824;28;20131;-76
2023/06/19 11:20:51;;;;;;;4.90;2.70;;;28.30;72.30;;;;;;5083366;28;20761;-75
2023/06/19 11:23:24;;;;;;;3.90;2.40;;;28.10;71.00;;;;;;5091786;28;20024;-70
2023/06/19 11:25:50;;;;;;;5.45;2.60;;;28.00;69.90;;;;;;5085435;28;20046;-76
2023/06/19 11:28:22;;;;;;;4.15;2.63;;;27.80;71.30;;;;;;5090483;28;20054;-74
2023/06/19 11:30:49;;;;;;;3.65;2.78;;;27.80;72.50;;;;;;5091556;28;20024;-72
2023/06/19 11:33:24;;;;;;;3.75;2.80;;;27.90;73.80;;;;;;5090269;28;20249;-73
2023/06/19 11:35:53;;;;;;;4.63;2.78;;;28.00;71.70;;;;;;5092417;28;20104;-74
2023/06/19 11:38:24;;;;;;;3.90;2.65;;;27.90;71.80;;;;;;5110430;28;20047;-73
2023/06/19 11:40:50;;;;;;;2.75;2.33;;;27.80;73.80;;;;;;5100061;28;20104;-74
2023/06/19 11:43:25;;;;;;;4.45;2.40;;;28.00;70.70;;;;;;5099514;28;20034;-73
2023/06/19 11:45:52;;;;;;;2.80;2.20;;;28.10;71.10;;;;;;5104327;27;20040;-73
2023/06/19 11:48:26;;;;;;;2.30;2.08;;;28.20;68.80;;;;;;5080392;28;20471;-71
2023/06/19 11:50:52;;;;;;;4.15;2.10;;;28.00;66.20;;;;;;5078797;28;20028;-72
2023/06/19 11:53:19;;;;;;;2.95;2.00;;;27.80;68.20;;;;;;5088656;28;20115;-71
2023/06/19 11:55:45;;;;;;;4.32;1.98;;;27.70;68.20;;;;;;5088438;28;20032;-72
2023/06/19 11:58:11;;;;;;;3.58;2.03;;;27.60;68.80;;;;;;5069401;28;20029;-73
2023/06/19 12:00:37;;;;;;;5.55;2.90;;;27.40;69.70;;;;;;5080054;28;20042;-73
2023/06/19 12:03:03;;;;;;;6.03;2.80;;;27.30;71.70;;;;;;5099673;28;20403;-72
2023/06/19 12:05:29;;;;;;;3.50;2.45;;;27.30;71.80;;;;;;5072326;28;20098;-71
2023/06/19 12:07:54;;;;;;;4.40;2.78;;;27.30;71.90;;;;;;5069944;28;20062;-72
2023/06/19 12:10:20;;;;;;;3.08;2.50;;;27.80;73.40;;;;;;5083037;28;20495;-75
2023/06/19 12:12:46;;;;;;;3.08;2.58;;;28.60;73.30;;;;;;5097483;28;20032;-74
2023/06/19 12:15:11;;;;;;;5.43;2.65;;;29.40;70.20;;;;;;5091855;28;20019;-77
2023/06/19 12:17:37;;;;;;;4.00;2.70;;;29.90;68.70;;;;;;5091286;28;20065;-77
2023/06/19 12:20:06;;;;;;;4.00;2.60;;;30.40;67.00;;;;;;5089777;28;20053;-75
2023/06/19 12:22:35;;;;;;;3.50;2.60;;;30.70;65.90;;;;;;5087946;28;20025;-75
2023/06/19 12:25:01;;;;;;;3.47;2.63;;;30.60;66.00;;;;;;5089753;28;20020;-75
2023/06/19 12:27:27;;;;;;;3.20;2.90;;;30.40;62.90;;;;;;5094650;28;20093;-76
2023/06/19 12:29:52;;;;;;;3.38;2.60;;;30.40;64.80;;;;;;5089496;28;20028;-75
2023/06/19 12:32:18;;;;;;;8.65;2.70;;;30.60;61.30;;;;;;5089238;28;20035;-75
2023/06/19 12:34:46;;;;;;;4.00;3.10;;;30.90;61.00;;;;;;5099256;28;20045;-76
2023/06/19 12:37:17;;;;;;;7.75;2.80;;;30.70;60.80;;;;;;5104783;28;20036;-79